Time;durP1;ratioP1;P1;durP2;ratioP2;P2;SDS_P1;SDS_P2;PMS_P1;PMS_P2;Temp;Humidity;BMP_temperature;BMP_pressure;BME280_temperature;BME280_humidity;BME280_pressure;Samples;Min_cycle;Max_cycle;Signal;HPM_P1;HPM_P2
2021/09/04 00:01:25;;;;;;;18.92;10.40;;;16.40;96.10;;;;;;5082481;28;20131;-67
2021/09/04 00:03:50;;;;;;;16.75;10.88;;;16.50;95.70;;;;;;5074759;28;20144;-65
2021/09/04 00:06:16;;;;;;;15.82;10.52;;;16.40;95.60;;;;;;5074704;28;20021;-67
2021/09/04 00:08:43;;;;;;;17.23;11.43;;;16.30;95.90;;;;;;5074973;28;20028;-66
2021/09/04 00:11:09;;;;;;;20.70;11.82;;;16.30;95.70;;;;;;5056622;28;20028;-67
2021/09/04 00:13:34;;;;;;;17.52;11.75;;;16.10;96.10;;;;;;5074465;28;20044;-66
2021/09/04 00:16:00;;;;;;;17.95;11.27;;;16.10;96.10;;;;;;5074512;28;20028;-66
2021/09/04 00:18:29;;;;;;;31.25;13.63;;;16.10;96.60;;;;;;5074533;28;20029;-66
2021/09/04 00:20:55;;;;;;;19.75;12.82;;;16.00;96.60;;;;;;5056369;28;20021;-65
2021/09/04 00:23:21;;;;;;;22.05;11.77;;;16.00;97.10;;;;;;5074360;28;20032;-65
2021/09/04 00:25:46;;;;;;;17.40;11.45;;;15.90;97.60;;;;;;5074265;28;20141;-67
2021/09/04 00:28:12;;;;;;;17.17;10.68;;;15.90;98.30;;;;;;5074330;28;20032;-67
2021/09/04 00:30:38;;;;;;;14.88;10.38;;;15.80;99.30;;;;;;5056253;28;20028;-67
2021/09/04 00:33:04;;;;;;;24.27;10.88;;;15.80;99.80;;;;;;5073784;28;20037;-67
2021/09/04 00:35:30;;;;;;;20.75;10.63;;;15.80;99.90;;;;;;5074126;28;20027;-64
2021/09/04 00:37:56;;;;;;;20.00;10.90;;;15.80;99.90;;;;;;5055602;28;20074;-65
2021/09/04 00:40:22;;;;;;;21.48;10.98;;;15.70;99.90;;;;;;5055777;28;20422;-64
2021/09/04 00:42:48;;;;;;;19.40;10.13;;;15.70;99.90;;;;;;5073965;28;20028;-67
2021/09/04 00:45:14;;;;;;;18.85;11.43;;;15.70;99.90;;;;;;5073936;28;20381;-64
2021/09/04 00:48:01;;;;;;;17.88;11.23;;;15.60;99.90;;;;;;5073616;28;20066;-63
2021/09/04 00:50:29;;;;;;;24.08;11.13;;;15.70;99.90;;;;;;5073807;28;20024;-67
2021/09/04 00:52:55;;;;;;;18.73;9.88;;;15.60;99.90;;;;;;5073743;28;20028;-64
2021/09/04 00:55:22;;;;;;;19.90;10.63;;;15.60;99.90;;;;;;5055780;28;20024;-65
2021/09/04 00:57:49;;;;;;;18.00;9.75;;;15.60;99.90;;;;;;5055839;28;20025;-65
2021/09/04 01:00:15;;;;;;;14.48;9.43;;;15.60;99.90;;;;;;5073172;28;20032;-66
2021/09/04 01:02:41;;;;;;;17.67;10.05;;;15.60;99.90;;;;;;5073660;28;20028;-65
2021/09/04 01:05:07;;;;;;;14.57;8.23;;;15.50;99.90;;;;;;5073505;28;20116;-67
2021/09/04 01:07:34;;;;;;;14.70;8.65;;;15.50;99.90;;;;;;5073519;28;20024;-67
2021/09/04 01:10:01;;;;;;;14.88;9.10;;;15.50;99.90;;;;;;5073551;28;20029;-65
2021/09/04 01:12:28;;;;;;;16.52;8.40;;;15.50;99.90;;;;;;5073377;28;20039;-65
2021/09/04 01:14:54;;;;;;;17.95;9.05;;;15.50;99.90;;;;;;5073370;28;20081;-67
2021/09/04 01:17:20;;;;;;;14.32;8.02;;;15.50;99.90;;;;;;5073413;28;20020;-67
2021/09/04 01:19:46;;;;;;;14.77;8.18;;;15.50;99.90;;;;;;5073387;28;20036;-68
2021/09/04 01:22:11;;;;;;;15.90;8.68;;;15.50;99.90;;;;;;5073000;28;20036;-65
2021/09/04 01:24:38;;;;;;;16.90;8.30;;;15.50;99.90;;;;;;5073215;28;20057;-65
2021/09/04 01:27:05;;;;;;;17.02;7.68;;;15.50;99.90;;;;;;5073265;28;20038;-64
2021/09/04 01:29:31;;;;;;;14.95;8.88;;;15.50;99.90;;;;;;5073330;28;20484;-67
2021/09/04 01:31:56;;;;;;;15.43;8.07;;;15.40;99.90;;;;;;5073098;28;20111;-66
2021/09/04 01:34:22;;;;;;;14.63;8.52;;;15.40;99.90;;;;;;5073409;28;20038;-65
2021/09/04 01:36:48;;;;;;;16.10;8.43;;;15.30;99.90;;;;;;5072901;28;20052;-66
2021/09/04 01:39:14;;;;;;;15.65;8.15;;;15.30;99.90;;;;;;5073468;28;20067;-64
2021/09/04 01:41:41;;;;;;;20.58;8.65;;;15.30;99.90;;;;;;5054984;28;20036;-67
2021/09/04 01:44:07;;;;;;;18.35;8.32;;;15.30;99.90;;;;;;5073050;28;20082;-65
2021/09/04 01:46:34;;;;;;;15.73;8.02;;;15.30;99.90;;;;;;5072723;28;20056;-68
2021/09/04 01:49:01;;;;;;;10.50;7.93;;;15.20;99.90;;;;;;5073098;28;20025;-66
2021/09/04 01:51:27;;;;;;;15.88;7.90;;;;;;;;;;5072670;28;20024;-66
2021/09/04 01:53:54;;;;;;;12.15;8.27;;;;;;;;;;5055261;28;20364;-65
2021/09/04 01:56:19;;;;;;;14.45;7.95;;;15.20;99.90;;;;;;5072641;28;20351;-67
2021/09/04 01:58:48;;;;;;;14.80;8.20;;;14.90;99.90;;;;;;5054904;28;20078;-67
2021/09/04 02:01:14;;;;;;;18.13;9.45;;;14.90;99.90;;;;;;5072778;28;20055;-66
2021/09/04 02:03:40;;;;;;;16.75;9.68;;;14.90;99.90;;;;;;5072905;28;20123;-65
2021/09/04 02:06:06;;;;;;;20.45;13.38;;;14.90;99.90;;;;;;5073089;28;20037;-67
2021/09/04 02:08:33;;;;;;;20.33;12.65;;;14.80;99.90;;;;;;5072841;28;20017;-67
2021/09/04 02:11:00;;;;;;;14.35;10.27;;;14.80;99.90;;;;;;5072825;28;20484;-66
2021/09/04 02:13:27;;;;;;;19.45;11.60;;;14.80;99.90;;;;;;5072730;28;20043;-65
2021/09/04 02:15:53;;;;;;;16.60;10.50;;;14.70;99.90;;;;;;5072755;28;20028;-66
2021/09/04 02:18:20;;;;;;;19.73;13.35;;;14.60;99.90;;;;;;5072746;28;20028;-66
2021/09/04 02:20:49;;;;;;;20.60;12.25;;;14.60;99.90;;;;;;5072696;28;20028;-66
2021/09/04 02:23:16;;;;;;;18.30;12.07;;;14.60;99.90;;;;;;5072718;28;20051;-64
2021/09/04 02:25:42;;;;;;;22.70;12.43;;;14.60;99.90;;;;;;5072481;28;20047;-66
2021/09/04 02:28:09;;;;;;;18.35;12.15;;;14.50;99.90;;;;;;5072601;28;20039;-66
2021/09/04 02:30:34;;;;;;;22.08;11.63;;;14.50;99.90;;;;;;5072607;28;20068;-66
2021/09/04 02:33:00;;;;;;;18.15;11.82;;;14.50;99.90;;;;;;5072502;28;20449;-65
2021/09/04 02:35:26;;;;;;;16.65;9.80;;;14.50;99.90;;;;;;5072525;28;20031;-65
2021/09/04 02:37:52;;;;;;;19.70;10.30;;;14.40;99.90;;;;;;5072495;28;20115;-65
2021/09/04 02:40:18;;;;;;;20.05;10.88;;;14.40;99.90;;;;;;5054494;28;20067;-66
2021/09/04 02:42:44;;;;;;;18.95;11.60;;;14.30;99.90;;;;;;5072458;28;20037;-66
2021/09/04 02:45:10;;;;;;;16.48;10.48;;;14.20;99.90;;;;;;5072433;28;20028;-66
2021/09/04 02:47:37;;;;;;;18.92;11.48;;;14.20;99.90;;;;;;5072695;28;20423;-66
2021/09/04 02:50:06;;;;;;;19.08;11.60;;;14.10;99.90;;;;;;5072513;28;20029;-67
2021/09/04 02:52:31;;;;;;;16.65;10.98;;;14.10;99.90;;;;;;5072360;28;20037;-66
2021/09/04 02:54:57;;;;;;;23.50;11.68;;;14.10;99.90;;;;;;5072408;28;20074;-67
2021/09/04 02:57:23;;;;;;;25.05;12.02;;;14.00;99.90;;;;;;5072364;28;20024;-66
2021/09/04 02:59:49;;;;;;;20.58;10.98;;;13.90;99.90;;;;;;5072403;28;20024;-66
2021/09/04 03:02:14;;;;;;;17.55;11.07;;;13.80;99.90;;;;;;5055392;28;20139;-68
2021/09/04 03:04:41;;;;;;;21.58;11.52;;;13.70;99.90;;;;;;5075914;28;20526;-68
2021/09/04 03:07:07;;;;;;;26.58;12.55;;;13.60;99.90;;;;;;5075872;28;20035;-65
2021/09/04 03:09:33;;;;;;;24.58;12.48;;;13.60;99.90;;;;;;5075609;28;20464;-68
2021/09/04 03:12:00;;;;;;;20.52;12.13;;;13.50;99.90;;;;;;5075759;28;20032;-67
2021/09/04 03:14:29;;;;;;;22.92;11.68;;;13.40;99.90;;;;;;5075712;28;20029;-67
2021/09/04 03:16:55;;;;;;;17.15;10.90;;;13.30;99.90;;;;;;5075744;28;20032;-68
2021/09/04 03:19:21;;;;;;;19.38;10.70;;;13.20;99.90;;;;;;5076025;28;20028;-67
2021/09/04 03:21:47;;;;;;;19.65;11.30;;;13.20;99.90;;;;;;5075844;28;20111;-65
2021/09/04 03:24:13;;;;;;;20.95;10.68;;;13.20;99.90;;;;;;5075597;28;20025;-65
2021/09/04 03:26:39;;;;;;;19.77;10.75;;;13.10;99.90;;;;;;5075487;28;20033;-66
2021/09/04 03:29:04;;;;;;;24.75;11.63;;;13.00;99.90;;;;;;5075480;28;20350;-67
2021/09/04 03:31:30;;;;;;;22.70;11.88;;;13.00;99.90;;;;;;5075322;28;20108;-68
2021/09/04 03:33:56;;;;;;;18.33;10.65;;;13.00;99.90;;;;;;5075415;28;20453;-68
2021/09/04 03:36:22;;;;;;;14.73;10.70;;;13.00;99.90;;;;;;5075291;28;20421;-67
2021/09/04 03:38:48;;;;;;;17.02;10.52;;;12.90;99.90;;;;;;5074967;28;20028;-67
2021/09/04 03:41:14;;;;;;;15.93;10.52;;;12.90;99.90;;;;;;5074798;28;20074;-67
2021/09/04 03:43:40;;;;;;;15.93;9.50;;;12.90;99.90;;;;;;5057111;28;20037;-69
2021/09/04 03:46:05;;;;;;;15.32;9.85;;;12.90;99.90;;;;;;5075159;28;20032;-67
2021/09/04 03:48:31;;;;;;;16.60;10.32;;;12.80;99.90;;;;;;5075372;28;20488;-66
2021/09/04 03:50:57;;;;;;;15.18;10.05;;;12.80;99.90;;;;;;5075076;28;20035;-65
2021/09/04 03:53:23;;;;;;;15.52;9.65;;;12.80;99.90;;;;;;5074941;28;20041;-67
2021/09/04 03:55:49;;;;;;;15.18;9.30;;;12.80;99.90;;;;;;5074930;28;20048;-65
2021/09/04 03:58:15;;;;;;;14.52;9.15;;;12.80;99.90;;;;;;5074910;28;20024;-68
2021/09/04 04:00:41;;;;;;;17.08;9.95;;;12.80;99.90;;;;;;5074565;28;20072;-66
2021/09/04 04:03:07;;;;;;;18.02;10.07;;;12.80;99.90;;;;;;5056816;28;20075;-66
2021/09/04 04:05:34;;;;;;;23.48;11.52;;;12.90;99.90;;;;;;5074731;28;20060;-67
2021/09/04 04:08:00;;;;;;;16.40;10.45;;;12.90;99.90;;;;;;5074364;28;20463;-65
2021/09/04 04:10:25;;;;;;;23.17;11.85;;;12.80;99.90;;;;;;5074652;28;20095;-68
2021/09/04 04:12:51;;;;;;;16.67;10.38;;;12.80;99.90;;;;;;5056487;28;20120;-69
2021/09/04 04:15:17;;;;;;;18.48;11.43;;;12.80;99.90;;;;;;5056254;28;20078;-69
2021/09/04 04:17:43;;;;;;;22.25;10.77;;;12.80;99.90;;;;;;5056555;28;20111;-65
2021/09/04 04:20:10;;;;;;;20.58;12.13;;;12.80;99.90;;;;;;5056489;28;20111;-69
2021/09/04 04:22:36;;;;;;;19.50;12.05;;;12.80;99.90;;;;;;5074436;28;20043;-69
2021/09/04 04:25:01;;;;;;;17.67;11.32;;;12.90;99.90;;;;;;5074341;28;20024;-65
2021/09/04 04:27:27;;;;;;;20.33;11.82;;;12.80;99.90;;;;;;5056367;28;20111;-67
2021/09/04 04:29:53;;;;;;;26.13;14.27;;;12.80;99.90;;;;;;5074043;28;20104;-67
2021/09/04 04:32:19;;;;;;;30.08;14.13;;;12.80;99.90;;;;;;5074036;28;20060;-64
2021/09/04 04:34:45;;;;;;;19.70;12.55;;;12.70;99.90;;;;;;5074176;28;20086;-65
2021/09/04 04:37:11;;;;;;;16.05;10.20;;;12.70;99.90;;;;;;5074357;28;20055;-65
2021/09/04 04:39:36;;;;;;;19.20;10.65;;;12.60;99.90;;;;;;5073616;28;20036;-64
2021/09/04 04:42:03;;;;;;;21.50;10.23;;;12.60;99.90;;;;;;5055968;28;20029;-65
2021/09/04 04:44:28;;;;;;;19.98;10.15;;;12.60;99.90;;;;;;5073979;28;20028;-66
2021/09/04 04:46:54;;;;;;;18.73;9.13;;;12.50;99.90;;;;;;5055982;28;20069;-65
2021/09/04 04:49:20;;;;;;;20.65;10.27;;;12.50;99.90;;;;;;5073801;28;20109;-65
2021/09/04 04:51:46;;;;;;;19.83;9.40;;;12.50;99.90;;;;;;5074014;28;20032;-67
2021/09/04 04:54:12;;;;;;;16.80;10.20;;;12.50;99.90;;;;;;5073531;28;20104;-65
2021/09/04 04:56:37;;;;;;;23.38;9.75;;;12.60;99.90;;;;;;5073443;28;20025;-65
2021/09/04 04:59:03;;;;;;;18.52;9.93;;;12.50;99.90;;;;;;5055626;28;20024;-64
2021/09/04 05:01:29;;;;;;;15.43;9.27;;;12.50;99.90;;;;;;5055350;28;20098;-65
2021/09/04 05:03:55;;;;;;;13.52;8.63;;;12.60;99.90;;;;;;5073858;28;20028;-67
2021/09/04 05:06:21;;;;;;;16.05;8.85;;;12.60;99.90;;;;;;5073381;28;20085;-65
2021/09/04 05:08:47;;;;;;;16.38;9.20;;;12.70;99.90;;;;;;5055478;28;20029;-65
2021/09/04 05:11:13;;;;;;;17.35;10.15;;;12.70;99.90;;;;;;5055594;28;20067;-65
2021/09/04 05:13:38;;;;;;;15.52;9.32;;;12.70;99.90;;;;;;5073400;28;20029;-65
2021/09/04 05:16:04;;;;;;;17.35;9.88;;;12.80;99.90;;;;;;5073409;28;20028;-67
2021/09/04 05:18:30;;;;;;;20.40;10.60;;;12.90;99.90;;;;;;5073664;28;20508;-65
2021/09/04 05:20:56;;;;;;;23.08;11.05;;;12.80;99.90;;;;;;5073441;28;20040;-64
2021/09/04 05:23:22;;;;;;;18.10;11.48;;;12.80;99.90;;;;;;5055310;28;20032;-65
2021/09/04 05:25:47;;;;;;;21.08;11.52;;;12.90;99.90;;;;;;5054865;28;20025;-65
2021/09/04 05:28:13;;;;;;;24.67;13.13;;;12.90;99.90;;;;;;5055044;28;20448;-65
2021/09/04 05:30:39;;;;;;;23.10;13.25;;;12.90;99.90;;;;;;5073268;28;20024;-65
2021/09/04 05:33:05;;;;;;;24.35;12.85;;;13.00;99.90;;;;;;5073166;28;20085;-65
2021/09/04 05:35:31;;;;;;;18.38;13.23;;;13.00;99.90;;;;;;5073149;28;20040;-67
2021/09/04 05:37:57;;;;;;;25.10;14.70;;;13.10;99.90;;;;;;5073387;28;20036;-66
2021/09/04 05:40:23;;;;;;;20.77;14.77;;;13.20;99.90;;;;;;5073172;28;20029;-68
2021/09/04 05:42:48;;;;;;;19.70;13.70;;;13.30;99.90;;;;;;5073013;28;20099;-67
2021/09/04 05:45:14;;;;;;;21.13;14.93;;;13.40;99.90;;;;;;5072750;28;20016;-66
2021/09/04 05:47:40;;;;;;;23.77;15.38;;;13.50;99.90;;;;;;5072891;28;20035;-67
2021/09/04 05:50:07;;;;;;;21.80;14.23;;;13.60;99.90;;;;;;5072711;28;20033;-66
2021/09/04 05:52:33;;;;;;;23.92;15.70;;;13.70;99.90;;;;;;5054831;28;20026;-65
2021/09/04 05:54:58;;;;;;;29.10;16.08;;;13.80;99.90;;;;;;5072911;28;20055;-66
2021/09/04 05:57:24;;;;;;;33.95;16.35;;;13.80;99.90;;;;;;5054822;28;20029;-65
2021/09/04 05:59:50;;;;;;;24.30;14.90;;;14.00;99.90;;;;;;5072934;28;20024;-66
2021/09/04 06:02:16;;;;;;;31.23;17.60;;;14.10;99.90;;;;;;5054424;28;20543;-66
2021/09/04 06:04:42;;;;;;;30.98;18.60;;;14.20;99.90;;;;;;5072815;28;20032;-65
2021/09/04 06:07:08;;;;;;;28.83;20.33;;;14.40;99.90;;;;;;5072871;28;20033;-66
2021/09/04 06:09:34;;;;;;;30.92;21.17;;;14.40;99.90;;;;;;5054561;28;20025;-65
2021/09/04 06:12:00;;;;;;;36.78;22.23;;;14.50;99.90;;;;;;5072786;28;20036;-65
2021/09/04 06:14:25;;;;;;;35.30;22.63;;;14.60;99.90;;;;;;5072711;28;20032;-65
2021/09/04 06:16:51;;;;;;;38.08;22.73;;;14.70;99.90;;;;;;5054980;28;20028;-65
2021/09/04 06:19:17;;;;;;;32.78;22.88;;;14.80;99.90;;;;;;5054566;28;20024;-66
2021/09/04 06:21:43;;;;;;;39.80;25.63;;;14.90;99.90;;;;;;5072687;28;20050;-67
2021/09/04 06:24:12;;;;;;;39.63;25.98;;;14.90;99.90;;;;;;5072642;28;20024;-65
2021/09/04 06:26:38;;;;;;;44.83;26.85;;;15.10;99.90;;;;;;5072621;28;20029;-65
2021/09/04 06:29:04;;;;;;;44.85;26.52;;;15.10;99.90;;;;;;5054651;28;20029;-65
2021/09/04 06:31:30;;;;;;;46.38;27.95;;;15.20;99.90;;;;;;5072233;28;20078;-64
2021/09/04 06:33:56;;;;;;;43.53;26.35;;;;;;;;;;5054295;28;20036;-64
2021/09/04 06:36:22;;;;;;;47.47;27.70;;;15.30;99.90;;;;;;5072801;28;20024;-65
2021/09/04 06:38:48;;;;;;;44.80;25.58;;;15.50;99.90;;;;;;5076093;28;20142;-65
2021/09/04 06:41:14;;;;;;;43.33;26.33;;;;;;;;;;5076426;28;20071;-65
2021/09/04 06:43:40;;;;;;;38.80;25.10;;;;;;;;;;5058326;28;20120;-66
2021/09/04 06:46:06;;;;;;;37.70;24.92;;;;;;;;;;5076244;28;20039;-67
2021/09/04 06:48:32;;;;;;;42.38;24.98;;;;;;;;;;5058185;28;20032;-65
2021/09/04 06:50:58;;;;;;;36.10;22.60;;;16.00;99.90;;;;;;5076135;28;20020;-66
2021/09/04 06:53:24;;;;;;;39.42;22.90;;;16.10;99.90;;;;;;5057967;28;20538;-66
2021/09/04 06:55:50;;;;;;;36.00;22.73;;;16.20;99.90;;;;;;5076036;28;20028;-67
2021/09/04 06:58:16;;;;;;;32.65;21.55;;;16.30;99.90;;;;;;5075992;28;20111;-66
2021/09/04 07:00:41;;;;;;;41.72;22.15;;;16.40;99.90;;;;;;5074706;28;20138;-66
2021/09/04 07:03:07;;;;;;;33.45;22.00;;;16.50;99.90;;;;;;5058004;28;20089;-66
2021/09/04 07:05:33;;;;;;;37.25;21.90;;;16.60;99.90;;;;;;5057815;28;20423;-68
2021/09/04 07:07:59;;;;;;;34.97;20.40;;;16.70;99.90;;;;;;5075848;28;20500;-66
2021/09/04 07:10:25;;;;;;;33.67;21.88;;;16.80;99.90;;;;;;5074456;28;20021;-66
2021/09/04 07:12:51;;;;;;;34.80;21.90;;;17.00;99.90;;;;;;5057821;28;20081;-66
2021/09/04 07:15:17;;;;;;;35.15;21.17;;;17.10;99.90;;;;;;5075684;28;20097;-67
2021/09/04 07:17:43;;;;;;;37.00;19.85;;;17.30;99.90;;;;;;5057690;28;20031;-66
2021/09/04 07:20:09;;;;;;;35.40;20.67;;;17.40;99.90;;;;;;5075350;28;20118;-67
2021/09/04 07:22:35;;;;;;;37.25;19.83;;;17.60;99.90;;;;;;5057724;28;20036;-66
2021/09/04 07:25:01;;;;;;;34.53;19.45;;;17.70;99.90;;;;;;5075772;28;20487;-67
2021/09/04 07:27:27;;;;;;;36.45;18.08;;;17.80;99.90;;;;;;5075479;28;20548;-67
2021/09/04 07:29:52;;;;;;;25.73;15.93;;;17.90;99.90;;;;;;5075115;28;20107;-67
2021/09/04 07:32:18;;;;;;;30.38;18.35;;;18.10;98.70;;;;;;5075075;28;20086;-66
2021/09/04 07:34:44;;;;;;;26.70;17.80;;;18.20;98.40;;;;;;5075371;28;20039;-67
2021/09/04 07:37:10;;;;;;;20.73;11.38;;;18.40;98.20;;;;;;5075553;28;20085;-67
2021/09/04 07:39:36;;;;;;;23.65;13.82;;;18.60;96.40;;;;;;5075277;28;20480;-67
2021/09/04 07:42:02;;;;;;;27.17;12.27;;;18.70;96.60;;;;;;5075283;28;20034;-66
2021/09/04 07:44:28;;;;;;;17.25;11.15;;;18.90;97.30;;;;;;5075124;28;20064;-67
2021/09/04 07:46:54;;;;;;;18.20;8.82;;;19.10;96.00;;;;;;5075159;28;20082;-67
2021/09/04 07:49:19;;;;;;;20.65;8.98;;;19.20;94.40;;;;;;5056663;28;20024;-68
2021/09/04 07:51:45;;;;;;;16.92;7.68;;;19.50;92.70;;;;;;5074983;28;20059;-66
2021/09/04 07:54:11;;;;;;;11.75;7.93;;;19.50;92.90;;;;;;5074969;28;20029;-67
2021/09/04 07:56:37;;;;;;;14.85;8.52;;;19.70;91.90;;;;;;5056842;28;20032;-67
2021/09/04 07:59:03;;;;;;;14.85;7.10;;;19.90;91.90;;;;;;5056874;28;20024;-68
2021/09/04 08:01:29;;;;;;;18.30;6.55;;;;;;;;;;5056579;28;20065;-67
2021/09/04 08:03:56;;;;;;;11.40;5.53;;;;;;;;;;5074759;28;20104;-70
2021/09/04 08:06:21;;;;;;;11.95;5.85;;;20.50;83.80;;;;;;5056560;28;20046;-68
2021/09/04 08:08:47;;;;;;;9.77;6.03;;;20.60;83.50;;;;;;5074643;28;20024;-68
2021/09/04 08:11:15;;;;;;;9.40;5.85;;;20.80;84.50;;;;;;5074713;28;20025;-67
2021/09/04 08:13:40;;;;;;;10.85;6.15;;;21.00;85.70;;;;;;5056536;28;20037;-67
2021/09/04 08:16:06;;;;;;;7.05;5.05;;;21.10;84.20;;;;;;5074486;28;20543;-68
2021/09/04 08:18:32;;;;;;;11.23;5.50;;;21.30;81.90;;;;;;5056415;28;20028;-69
2021/09/04 08:20:58;;;;;;;12.38;5.13;;;21.40;79.80;;;;;;5056363;28;20052;-68
2021/09/04 08:23:24;;;;;;;15.10;4.88;;;21.60;79.00;;;;;;5074410;28;20043;-68
2021/09/04 08:25:49;;;;;;;8.70;5.40;;;21.70;74.40;;;;;;5074002;28;20362;-69
2021/09/04 08:28:15;;;;;;;13.02;6.47;;;21.90;77.10;;;;;;5074544;28;20023;-68
2021/09/04 08:30:41;;;;;;;18.88;7.88;;;22.10;74.00;;;;;;5056427;28;20024;-68
2021/09/04 08:33:07;;;;;;;19.10;8.95;;;22.30;73.10;;;;;;5073964;28;20387;-70
2021/09/04 08:35:33;;;;;;;29.52;10.30;;;;;;;;;;5074215;28;20036;-68
2021/09/04 08:38:04;;;;;;;20.90;9.23;;;22.40;74.30;;;;;;5056170;28;20017;-67
2021/09/04 08:40:30;;;;;;;15.35;7.80;;;;;;;;;;5074132;28;20376;-68
2021/09/04 08:42:56;;;;;;;18.95;9.63;;;;;;;;;;5074037;28;20507;-69
2021/09/04 08:45:22;;;;;;;10.85;5.57;;;;;;;;;;5073972;28;20063;-68
2021/09/04 08:47:51;;;;;;;12.23;5.60;;;;;;;;;;5073944;28;20032;-71
2021/09/04 08:50:19;;;;;;;13.75;5.95;;;;;;;;;;5073842;28;20124;-69
2021/09/04 08:52:45;;;;;;;13.32;6.80;;;;;;;;;;5055764;28;20461;-69
2021/09/04 08:55:11;;;;;;;27.73;7.45;;;;;;;;;;5073442;28;20462;-70
2021/09/04 08:57:37;;;;;;;12.18;5.32;;;22.80;75.10;;;;;;5073391;28;20086;-70
2021/09/04 09:00:03;;;;;;;12.90;4.82;;;24.10;69.70;;;;;;5054548;28;20469;-71
2021/09/04 09:02:29;;;;;;;12.50;4.47;;;24.10;66.40;;;;;;5051748;28;20171;-69
2021/09/04 09:05:07;;;;;;;11.63;3.90;;;24.20;67.00;;;;;;5053081;28;20044;-71
2021/09/04 09:07:44;;;;;;;6.40;3.17;;;24.30;64.20;;;;;;5053214;28;20041;-73
2021/09/04 09:10:22;;;;;;;11.88;4.10;;;24.60;64.10;;;;;;5053629;28;20025;-72
2021/09/04 09:12:51;;;;;;;6.03;3.33;;;24.70;64.80;;;;;;5052285;28;20150;-72
2021/09/04 09:15:25;;;;;;;7.65;3.45;;;24.90;64.80;;;;;;5053553;28;20033;-71
2021/09/04 09:18:02;;;;;;;7.90;3.10;;;25.00;64.00;;;;;;5053449;28;20025;-76
2021/09/04 09:20:28;;;;;;;5.40;2.97;;;25.00;61.90;;;;;;5053416;28;20059;-75
2021/09/04 09:23:01;;;;;;;6.53;3.15;;;25.20;63.40;;;;;;5053388;28;20029;-75
2021/09/04 09:25:27;;;;;;;5.53;2.92;;;25.40;64.80;;;;;;5052050;28;20029;-75
2021/09/04 09:28:00;;;;;;;3.10;2.60;;;25.60;61.60;;;;;;5051905;28;20078;-75
2021/09/04 09:30:35;;;;;;;3.67;2.90;;;25.60;58.50;;;;;;5051842;28;20021;-75
2021/09/04 09:33:02;;;;;;;3.85;2.75;;;25.80;61.50;;;;;;5053125;28;20033;-77
2021/09/04 09:35:33;;;;;;;3.45;2.53;;;25.80;58.70;;;;;;5052109;28;20435;-77
2021/09/04 09:38:00;;;;;;;6.38;2.88;;;26.00;61.10;;;;;;5053098;28;20025;-76
2021/09/04 09:40:26;;;;;;;2.42;2.22;;;26.20;61.70;;;;;;5051755;28;20036;-78
2021/09/04 09:42:52;;;;;;;4.88;2.70;;;26.30;59.20;;;;;;5051836;28;20523;-76
2021/09/04 09:45:18;;;;;;;6.18;2.90;;;26.40;57.60;;;;;;5052967;28;20103;-76
2021/09/04 09:47:51;;;;;;;5.15;2.42;;;26.50;59.30;;;;;;5051614;28;20024;-77
2021/09/04 09:50:17;;;;;;;4.93;2.50;;;26.70;57.70;;;;;;5051330;28;20025;-75
2021/09/04 09:52:45;;;;;;;5.78;2.60;;;26.80;57.20;;;;;;5052921;28;20104;-76
2021/09/04 09:55:12;;;;;;;5.00;2.53;;;26.90;57.00;;;;;;5052786;28;20487;-76
2021/09/04 09:57:40;;;;;;;14.77;2.42;;;27.10;57.70;;;;;;5051535;28;20036;-77
2021/09/04 10:00:08;;;;;;;2.33;2.13;;;27.30;58.00;;;;;;5051558;28;20033;-75
2021/09/04 10:02:34;;;;;;;3.63;2.15;;;27.40;56.80;;;;;;5051254;28;20059;-76
2021/09/04 10:05:01;;;;;;;3.60;2.28;;;27.60;55.90;;;;;;5051475;28;20100;-75
2021/09/04 10:07:27;;;;;;;2.95;2.20;;;27.60;53.80;;;;;;5051522;28;20029;-76
2021/09/04 10:09:53;;;;;;;3.20;2.50;;;27.60;54.20;;;;;;5052797;28;20027;-76
2021/09/04 10:12:21;;;;;;;4.22;2.10;;;27.80;54.50;;;;;;5054830;28;20029;-76
2021/09/04 10:14:50;;;;;;;6.13;2.10;;;28.00;54.80;;;;;;5054404;28;20486;-77
2021/09/04 10:17:20;;;;;;;2.10;1.98;;;28.20;52.60;;;;;;5055140;28;20470;-77
2021/09/04 10:19:49;;;;;;;2.30;2.10;;;28.30;53.20;;;;;;5055344;28;20025;-75
2021/09/04 10:22:15;;;;;;;3.50;2.10;;;28.70;52.60;;;;;;5056776;28;20028;-77
2021/09/04 10:24:51;;;;;;;4.00;2.20;;;29.20;52.50;;;;;;5056691;28;20065;-78
2021/09/04 10:27:40;;;;;;;3.00;2.10;;;29.60;51.60;;;;;;5054894;28;20075;-79
2021/09/04 10:30:26;;;;;;;2.15;1.95;;;30.10;50.50;;;;;;5055484;28;20381;-80
2021/09/04 10:32:55;;;;;;;6.43;2.33;;;30.70;49.70;;;;;;5054946;28;20382;-78
2021/09/04 10:35:41;;;;;;;7.03;2.80;;;31.00;48.60;;;;;;5055151;28;20040;-78
2021/09/04 10:38:10;;;;;;;2.80;2.10;;;31.60;49.20;;;;;;5056308;28;20480;-78
2021/09/04 10:40:37;;;;;;;4.28;3.00;;;32.10;45.40;;;;;;5056521;28;20036;-80
2021/09/04 10:43:08;;;;;;;6.80;2.42;;;32.80;47.50;;;;;;5054930;28;20061;-80
2021/09/04 10:45:37;;;;;;;2.35;2.15;;;33.30;46.00;;;;;;5056558;28;20087;-81
2021/09/04 10:48:16;;;;;;;2.80;2.42;;;33.70;43.50;;;;;;5056312;28;20017;-76
2021/09/04 10:51:03;;;;;;;2.60;2.40;;;34.10;42.50;;;;;;5054876;28;20025;-80
2021/09/04 10:53:58;;;;;;;9.00;2.67;;;34.10;43.20;;;;;;5056249;28;20385;-79
2021/09/04 10:56:29;;;;;;;2.47;2.10;;;34.40;41.30;;;;;;5037723;28;20130;-76
2021/09/04 10:58:55;;;;;;;3.00;2.75;;;35.10;41.90;;;;;;5055827;28;20025;-77
2021/09/04 11:01:28;;;;;;;3.65;2.03;;;35.10;42.10;;;;;;5054473;28;20098;-74
2021/09/04 11:03:57;;;;;;;3.92;2.00;;;35.80;42.60;;;;;;5054838;28;20029;-75
2021/09/04 11:06:24;;;;;;;2.67;2.45;;;36.70;42.70;;;;;;5055310;28;20029;-76
2021/09/04 11:08:51;;;;;;;4.90;2.63;;;36.60;40.50;;;;;;5056579;28;20029;-75
2021/09/04 11:11:36;;;;;;;3.10;2.75;;;37.50;41.10;;;;;;5055960;28;20068;-76
2021/09/04 11:14:22;;;;;;;2.47;2.25;;;38.00;39.60;;;;;;5055150;28;20029;-75
2021/09/04 11:16:50;;;;;;;3.65;2.40;;;37.90;39.10;;;;;;5056848;28;20032;-77
2021/09/04 11:19:32;;;;;;;3.60;2.65;;;38.20;37.90;;;;;;5056650;28;20029;-77
2021/09/04 11:22:00;;;;;;;2.78;2.58;;;38.10;39.00;;;;;;5055357;28;20021;-76
2021/09/04 11:24:35;;;;;;;4.15;2.70;;;39.00;42.40;;;;;;5055190;28;20029;-76
2021/09/04 11:27:13;;;;;;;3.97;2.58;;;38.10;37.30;;;;;;5055285;28;20029;-77
2021/09/04 11:29:48;;;;;;;5.22;2.20;;;38.60;38.90;;;;;;5056847;28;20033;-75
2021/09/04 11:32:15;;;;;;;4.30;2.40;;;39.20;38.10;;;;;;5056403;28;20032;-76
2021/09/04 11:34:50;;;;;;;2.95;2.50;;;39.60;39.20;;;;;;5054760;28;20595;-74
2021/09/04 11:37:32;;;;;;;2.63;2.42;;;39.90;38.80;;;;;;5055828;28;20021;-75
2021/09/04 11:40:03;;;;;;;2.33;2.13;;;40.30;37.60;;;;;;5054261;28;20075;-71
2021/09/04 11:42:31;;;;;;;2.63;2.17;;;40.10;39.20;;;;;;5051003;28;20116;-72
2021/09/04 11:45:17;;;;;;;5.03;2.67;;;40.10;39.50;;;;;;5044333;28;20277;-72
2021/09/04 11:47:45;;;;;;;3.35;2.50;;;41.00;38.80;;;;;;5044876;28;20052;-73
2021/09/04 11:50:24;;;;;;;5.25;2.85;;;40.60;37.00;;;;;;5045462;28;20029;-72
2021/09/04 11:52:51;;;;;;;7.20;2.92;;;40.00;37.20;;;;;;5054770;28;20060;-71
2021/09/04 11:55:26;;;;;;;6.22;2.67;;;37.80;40.00;;;;;;5054921;28;20033;-72
2021/09/04 11:57:58;;;;;;;3.25;2.40;;;35.90;40.60;;;;;;5054985;28;20458;-72
2021/09/04 12:00:29;;;;;;;3.60;2.67;;;34.00;42.30;;;;;;5054984;28;20432;-72
2021/09/04 12:02:55;;;;;;;4.07;2.55;;;;;;;;;;5095015;28;20113;-71
2021/09/04 12:05:24;;;;;;;3.80;3.22;;;31.60;46.80;;;;;;5095021;28;20016;-72
2021/09/04 12:07:53;;;;;;;6.20;3.28;;;30.80;46.60;;;;;;5076826;28;20040;-71
2021/09/04 12:10:30;;;;;;;3.45;2.35;;;30.30;48.20;;;;;;5095064;28;20070;-71
2021/09/04 12:13:01;;;;;;;5.63;2.78;;;29.80;49.00;;;;;;5094851;28;20031;-71
2021/09/04 12:15:29;;;;;;;7.70;3.28;;;29.50;48.90;;;;;;5094679;28;20372;-71
2021/09/04 12:18:01;;;;;;;6.03;3.65;;;32.30;47.90;;;;;;5094515;28;20392;-71
2021/09/04 12:20:31;;;;;;;3.80;2.83;;;35.00;45.90;;;;;;5094804;28;20036;-71
2021/09/04 12:23:01;;;;;;;6.80;3.67;;;36.80;42.80;;;;;;5094711;28;20468;-71
2021/09/04 12:25:32;;;;;;;3.40;2.72;;;38.00;39.50;;;;;;5076425;28;20028;-72
2021/09/04 12:28:05;;;;;;;4.45;2.50;;;39.50;38.90;;;;;;5076482;28;20024;-71
2021/09/04 12:30:33;;;;;;;3.33;2.63;;;39.40;38.70;;;;;;5094564;28;20039;-73
2021/09/04 12:33:08;;;;;;;3.35;2.60;;;40.30;38.40;;;;;;5094358;28;20063;-73
2021/09/04 12:35:51;;;;;;;2.53;2.33;;;41.00;38.50;;;;;;5075142;28;20453;-71
2021/09/04 12:38:19;;;;;;;4.13;3.10;;;41.40;37.90;;;;;;5076273;28;20036;-71
2021/09/04 12:41:01;;;;;;;5.30;2.53;;;41.80;37.90;;;;;;5094334;28;20457;-71
2021/09/04 12:43:47;;;;;;;5.10;2.50;;;42.20;36.60;;;;;;5094346;28;20032;-74